Koewacht, Netherlands
Current Conditions -  °F | °C
As of 4:50 AM on Friday 31 Oct 2014 (Local Time) from EBAW Reporting Station
Clear Clear  
Wind Chill: 46°   Ceiling: Unl
Heat Index: 48°   Visibility: 3mi
Dew Point: 46°   Wind: 5mph
Humidity: 93%   Direction: 160°SSE
Pressure: 30.15"   Gusts: NA
Location:  51.23°N, 3.97°E
Report Text: EBAW 310350Z AUTO 16004KT 5000 NCD 09/08 Q1021
Loading
Personal Weather Stations






























Interactive Weather Map
Tropical Storm Tracking
New forecast layout! Learn more

10-Day Weather Forecast

Advertisements
Track Severe Weather on mobile